createdAt,value
2022-11-01T00:00:11.499Z,90.53
2022-11-01T00:01:17.879Z,90.76
2022-11-01T00:02:21.817Z,90.53
2022-11-01T00:03:26.073Z,90.74
2022-11-01T00:04:29.922Z,90.81
2022-11-01T00:05:32.789Z,90.94
2022-11-01T00:06:36.741Z,90.90
2022-11-01T00:07:39.729Z,90.82
2022-11-01T00:08:44.016Z,90.70
2022-11-01T00:09:47.877Z,90.75
2022-11-01T00:10:50.723Z,90.70
2022-11-01T00:11:54.732Z,90.77
2022-11-01T00:12:57.518Z,90.84
2022-11-01T00:14:01.713Z,90.84
2022-11-01T00:15:05.098Z,90.87
2022-11-01T00:16:09.308Z,90.69
2022-11-01T00:17:13.783Z,90.74
2022-11-01T00:18:16.791Z,90.82
2022-11-01T00:19:24.731Z,90.88
2022-11-01T00:20:27.668Z,90.90
2022-11-01T00:21:34.519Z,90.67
2022-11-01T00:22:38.187Z,90.93
2022-11-01T00:23:42.338Z,90.75
2022-11-01T00:24:45.270Z,90.87
2022-11-01T00:25:49.397Z,90.70
2022-11-01T00:26:53.780Z,90.76
2022-11-01T00:27:56.561Z,90.66
2022-11-01T00:29:00.700Z,90.62
2022-11-01T00:30:04.390Z,90.80
2022-11-01T00:31:11.797Z,90.67
2022-11-01T00:32:15.920Z,90.69
2022-11-01T00:33:19.967Z,90.88
2022-11-01T00:34:24.399Z,90.67
2022-11-01T00:35:28.299Z,90.34
2022-11-01T00:36:31.177Z,90.40
2022-11-01T00:37:35.007Z,90.49
2022-11-01T00:38:37.848Z,90.45
2022-11-01T00:39:42.130Z,90.58
2022-11-01T00:40:45.341Z,91.01
2022-11-01T00:41:49.101Z,90.94
2022-11-01T00:42:52.151Z,91.30
2022-11-01T00:43:56.379Z,91.41
2022-11-01T00:45:00.093Z,91.64
2022-11-01T00:46:04.438Z,91.63
2022-11-01T00:47:07.199Z,91.34
2022-11-01T00:48:11.009Z,91.31
2022-11-01T00:49:14.748Z,91.59
2022-11-01T00:50:18.909Z,91.76
2022-11-01T00:51:23.103Z,91.91
2022-11-01T00:52:26.647Z,91.70
2022-11-01T00:53:30.576Z,91.67
2022-11-01T00:54:33.421Z,91.69
2022-11-01T00:55:37.339Z,91.94
2022-11-01T00:56:41.200Z,91.98
2022-11-01T00:57:44.896Z,91.96
2022-11-01T00:58:48.828Z,91.93
2022-11-01T01:01:00.891Z,92.41
2022-11-01T01:02:04.098Z,92.27
2022-11-01T01:03:08.401Z,92.26
2022-11-01T01:04:11.941Z,92.26
2022-11-01T01:05:16.411Z,92.15
2022-11-01T01:06:21.098Z,92.01
2022-11-01T01:07:25.160Z,92.03
2022-11-01T01:08:28.813Z,92.16
2022-11-01T01:09:33.029Z,92.20
2022-11-01T01:10:36.599Z,92.42
2022-11-01T01:11:40.759Z,92.75
2022-11-01T01:12:43.583Z,92.90
2022-11-01T01:13:47.696Z,92.81
2022-11-01T01:14:51.083Z,93.04
2022-11-01T01:16:15.168Z,92.85
2022-11-01T01:17:39.510Z,92.85
2022-11-01T01:19:02.728Z,92.89
2022-11-01T01:20:26.918Z,92.80
2022-11-01T01:21:51.047Z,92.88
2022-11-01T01:23:15.710Z,92.58
2022-11-01T01:24:39.169Z,92.35
2022-11-01T01:26:07.693Z,92.90
2022-11-01T01:27:30.338Z,93.03
2022-11-01T01:28:55.576Z,93.16
2022-11-01T01:30:18.368Z,93.65
2022-11-01T01:31:42.079Z,93.93
2022-11-01T01:33:05.408Z,94.25
2022-11-01T01:34:28.278Z,93.55
2022-11-01T01:35:45.309Z,93.94
2022-11-01T01:37:10.250Z,94.06
2022-11-01T01:38:34.520Z,94.32
2022-11-01T01:39:58.277Z,94.38
2022-11-01T01:41:39.918Z,94.05
2022-11-01T01:43:03.809Z,94.24
2022-11-01T01:45:08.101Z,94.81
2022-11-01T01:46:31.960Z,95.19
2022-11-01T01:47:49.231Z,95.25
2022-11-01T01:49:13.059Z,95.25
2022-11-01T01:50:38.822Z,95.10
2022-11-01T01:52:02.753Z,95.11
2022-11-01T01:53:30.161Z,95.08
2022-11-01T01:54:53.078Z,95.30
2022-11-01T01:56:18.463Z,94.97
2022-11-01T01:57:41.802Z,95.09
2022-11-01T01:59:08.561Z,95.36
2022-11-01T02:00:32.460Z,94.88
2022-11-01T02:01:55.408Z,95.48
2022-11-01T02:03:19.481Z,95.41
2022-11-01T02:04:45.080Z,95.06
2022-11-01T02:06:11.955Z,95.22
2022-11-01T02:07:34.730Z,95.35
2022-11-01T02:09:02.160Z,96.07
2022-11-01T02:10:25.082Z,96.00
2022-11-01T02:11:49.231Z,96.14
2022-11-01T02:13:13.692Z,96.00
2022-11-01T02:14:37.473Z,95.62
2022-11-01T02:16:13.562Z,95.63
2022-11-01T02:17:41.339Z,95.56
2022-11-01T02:19:47.482Z,95.65
2022-11-01T02:21:39.833Z,96.22
2022-11-01T02:23:19.754Z,96.37
2022-11-01T02:24:55.840Z,96.64
2022-11-01T02:26:56.718Z,96.59
2022-11-01T02:28:40.312Z,96.47
2022-11-01T02:30:19.149Z,96.18
2022-11-01T02:31:38.594Z,96.04
2022-11-01T02:33:03.741Z,96.29
2022-11-01T02:34:11.169Z,96.65
2022-11-01T02:35:21.007Z,96.60
2022-11-01T02:36:27.465Z,96.27
2022-11-01T02:37:35.834Z,96.14
2022-11-01T02:38:40.762Z,96.16
2022-11-01T02:39:49.873Z,95.50
2022-11-01T02:40:59.341Z,95.98
2022-11-01T02:42:06.467Z,95.73
2022-11-01T02:43:12.491Z,96.33
2022-11-01T02:44:18.481Z,96.49
2022-11-01T02:45:29.260Z,96.75
2022-11-01T02:46:53.163Z,96.28
2022-11-01T02:47:58.184Z,96.18
2022-11-01T02:49:03.623Z,96.53
2022-11-01T02:50:09.851Z,96.30
2022-11-01T02:51:13.649Z,96.71
2022-11-01T02:52:21.198Z,96.50
2022-11-01T02:53:24.201Z,96.38
2022-11-01T02:54:32.415Z,96.84
2022-11-01T02:55:36.451Z,96.56
2022-11-01T02:56:41.268Z,96.74
2022-11-01T02:57:44.243Z,96.59
2022-11-01T02:58:49.736Z,96.70
2022-11-01T02:59:52.529Z,97.13
2022-11-01T03:00:57.332Z,96.76
2022-11-01T03:02:08.550Z,97.03
2022-11-01T03:03:15.544Z,97.06
2022-11-01T03:04:19.982Z,97.05
2022-11-01T03:05:29.087Z,97.08
2022-11-01T03:06:35.110Z,97.46
2022-11-01T03:07:39.981Z,97.40
2022-11-01T03:08:45.740Z,97.95
2022-11-01T03:09:49.601Z,97.84
2022-11-01T03:10:55.390Z,97.98
2022-11-01T03:12:02.434Z,97.84
2022-11-01T03:13:11.812Z,98.46
2022-11-01T03:14:22.512Z,98.81
2022-11-01T03:15:28.161Z,98.50
2022-11-01T03:16:34.738Z,98.37
2022-11-01T03:17:44.262Z,99.10
2022-11-01T03:18:57.341Z,98.52
2022-11-01T03:20:06.809Z,98.27
2022-11-01T03:21:17.064Z,98.80
2022-11-01T03:22:24.271Z,98.31
2022-11-01T03:23:34.201Z,98.12
2022-11-01T03:24:40.877Z,98.07
2022-11-01T03:25:48.167Z,98.32
2022-11-01T03:26:56.230Z,97.94
2022-11-01T03:28:01.779Z,98.57
2022-11-01T03:29:07.851Z,98.64
2022-11-01T03:30:14.363Z,98.57
2022-11-01T03:31:20.421Z,98.47
2022-11-01T03:32:25.981Z,98.30
2022-11-01T03:33:30.252Z,98.74
2022-11-01T03:34:36.914Z,98.23
2022-11-01T03:35:43.862Z,99.13
2022-11-01T03:36:51.298Z,98.52
2022-11-01T03:38:00.000Z,99.09
2022-11-01T03:39:06.888Z,99.00
2022-11-01T03:40:11.651Z,98.77
2022-11-01T03:41:18.030Z,98.85
2022-11-01T03:42:22.052Z,98.37
2022-11-01T03:43:27.042Z,98.67
2022-11-01T03:44:33.524Z,99.41
2022-11-01T03:45:39.870Z,99.05
2022-11-01T03:46:42.904Z,98.75
2022-11-01T03:47:46.780Z,98.86
2022-11-01T03:48:49.643Z,99.44
2022-11-01T03:50:15.181Z,99.51
2022-11-01T03:51:20.567Z,98.94
2022-11-01T03:52:23.483Z,99.35
2022-11-01T03:53:27.573Z,98.79
2022-11-01T03:54:30.393Z,99.44
2022-11-01T03:55:34.242Z,99.37
2022-11-01T03:56:37.271Z,99.31
2022-11-01T03:57:43.049Z,99.48
2022-11-01T03:58:46.509Z,99.35
2022-11-01T03:59:50.383Z,99.84
2022-11-01T04:00:54.684Z,99.33
2022-11-01T04:01:58.873Z,99.88
2022-11-01T04:03:02.279Z,99.66
2022-11-01T04:04:06.573Z,100.00
2022-11-01T04:05:09.726Z,99.83
2022-11-01T04:06:13.704Z,99.16
2022-11-01T04:07:18.023Z,99.47
2022-11-01T04:08:21.856Z,99.73
2022-11-01T04:09:24.731Z,100.00
2022-11-01T04:10:29.412Z,99.61
2022-11-01T04:11:32.363Z,100.00
2022-11-01T04:12:36.530Z,99.82
2022-11-01T04:13:39.498Z,99.57
2022-11-01T04:15:00.406Z,99.62
2022-11-01T04:16:26.943Z,99.81
2022-11-01T04:17:53.389Z,99.57
2022-11-01T04:19:14.706Z,99.82
2022-11-01T04:20:37.151Z,99.64
2022-11-01T04:21:40.698Z,99.78
2022-11-01T04:22:46.022Z,99.14
2022-11-01T04:23:48.959Z,99.73
2022-11-01T04:24:53.141Z,99.41
2022-11-01T04:25:55.861Z,99.17
2022-11-01T04:26:59.662Z,99.33
2022-11-01T04:28:05.114Z,99.29
2022-11-01T04:29:09.122Z,99.03
2022-11-01T04:30:12.728Z,99.39
2022-11-01T04:31:16.535Z,99.28
2022-11-01T04:32:19.718Z,99.52
2022-11-01T04:33:23.825Z,99.05
2022-11-01T04:34:41.520Z,99.02
2022-11-01T04:35:46.050Z,99.27
2022-11-01T04:36:48.802Z,99.55
2022-11-01T04:37:59.336Z,99.04
2022-11-01T04:39:05.333Z,99.65
2022-11-01T04:40:09.581Z,99.42
2022-11-01T04:41:13.522Z,99.11
2022-11-01T04:42:16.313Z,98.66
2022-11-01T04:43:23.052Z,98.88
2022-11-01T04:44:25.919Z,99.28
2022-11-01T04:45:30.204Z,98.80
2022-11-01T04:46:32.949Z,99.03
2022-11-01T04:47:36.911Z,98.62
2022-11-01T04:48:39.772Z,98.95
2022-11-01T04:49:43.611Z,99.19
2022-11-01T04:50:47.552Z,99.25
2022-11-01T04:51:50.363Z,99.14
2022-11-01T04:52:54.172Z,98.63
2022-11-01T04:53:59.438Z,98.82
2022-11-01T04:55:02.264Z,98.86
2022-11-01T04:56:09.171Z,98.52
2022-11-01T04:57:23.102Z,98.63
2022-11-01T04:58:27.668Z,98.63
2022-11-01T04:59:30.510Z,98.61
2022-11-01T05:00:34.840Z,98.81
2022-11-01T05:01:41.006Z,98.52
2022-11-01T05:02:44.943Z,98.63
2022-11-01T05:03:50.108Z,99.17
2022-11-01T05:04:52.960Z,99.09
2022-11-01T05:05:57.149Z,99.10
2022-11-01T05:06:59.981Z,99.08
2022-11-01T05:08:04.363Z,98.72
2022-11-01T05:09:08.801Z,98.74
2022-11-01T05:10:13.171Z,99.02
2022-11-01T05:11:16.839Z,98.81
2022-11-01T05:12:22.513Z,98.59
2022-11-01T05:13:26.677Z,98.79
2022-11-01T05:14:29.436Z,98.52
2022-11-01T05:15:33.702Z,98.91
2022-11-01T05:16:38.063Z,98.56
2022-11-01T05:17:43.185Z,99.05
2022-11-01T05:18:49.015Z,99.06
2022-11-01T05:19:53.282Z,98.49
2022-11-01T05:20:56.939Z,98.88
2022-11-01T05:22:00.895Z,98.93
2022-11-01T05:23:05.820Z,99.17
2022-11-01T05:24:11.291Z,99.40
2022-11-01T05:25:14.093Z,99.08
2022-11-01T05:26:18.293Z,99.22
2022-11-01T05:27:21.099Z,99.20
2022-11-01T05:28:24.840Z,99.24
2022-11-01T05:29:33.011Z,99.37
2022-11-01T05:30:38.487Z,99.38
2022-11-01T05:31:41.270Z,98.93
2022-11-01T05:32:45.468Z,99.19
2022-11-01T05:33:48.262Z,99.14
2022-11-01T05:34:52.160Z,99.02
2022-11-01T05:35:54.955Z,99.19
2022-11-01T05:37:00.038Z,99.02
2022-11-01T05:38:05.360Z,99.05
2022-11-01T05:39:10.020Z,99.32
2022-11-01T05:40:14.526Z,99.21
2022-11-01T05:41:17.272Z,99.13
2022-11-01T05:42:21.139Z,99.48
2022-11-01T05:43:23.882Z,99.69
2022-11-01T05:44:28.501Z,99.53
2022-11-01T05:45:31.486Z,99.24
2022-11-01T05:46:35.399Z,99.56
2022-11-01T05:47:40.691Z,99.32
2022-11-01T05:48:45.073Z,99.71
2022-11-01T05:49:47.933Z,99.66
2022-11-01T05:50:51.734Z,99.39
2022-11-01T05:51:54.680Z,99.79
2022-11-01T05:53:06.615Z,99.31
2022-11-01T05:54:10.841Z,99.33
2022-11-01T05:55:14.666Z,99.68
2022-11-01T05:56:18.249Z,99.73
2022-11-01T05:57:21.990Z,99.67
2022-11-01T05:58:27.997Z,99.18
2022-11-01T05:59:34.623Z,99.56
2022-11-01T06:00:37.422Z,99.74
2022-11-01T06:01:41.509Z,99.57
2022-11-01T06:02:44.326Z,99.85
2022-11-01T06:03:51.471Z,99.78
2022-11-01T06:04:57.961Z,99.83
2022-11-01T06:06:03.261Z,99.95
2022-11-01T06:07:07.113Z,99.76
2022-11-01T06:08:09.971Z,99.75
2022-11-01T06:09:15.303Z,99.98
2022-11-01T06:10:18.135Z,100.00
2022-11-01T06:11:21.920Z,99.90
2022-11-01T06:12:25.536Z,100.00
2022-11-01T06:13:29.379Z,99.77
2022-11-01T06:14:32.250Z,100.00
2022-11-01T06:15:38.833Z,100.00
2022-11-01T06:16:44.275Z,100.00
2022-11-01T06:17:48.471Z,100.00
2022-11-01T06:18:51.321Z,100.00
2022-11-01T06:19:55.109Z,100.00
2022-11-01T06:20:58.521Z,100.00
2022-11-01T06:22:02.482Z,100.00
2022-11-01T06:23:09.313Z,100.00
2022-11-01T06:24:15.392Z,100.00
2022-11-01T06:25:18.330Z,100.00
2022-11-01T06:26:22.112Z,100.00
2022-11-01T06:27:24.863Z,100.00
2022-11-01T06:28:28.784Z,100.00
2022-11-01T06:29:31.620Z,100.00
2022-11-01T06:30:35.640Z,100.00
2022-11-01T06:31:38.505Z,100.00
2022-11-01T06:32:42.902Z,100.00
2022-11-01T06:33:45.664Z,100.00
2022-11-01T06:34:49.500Z,100.00
2022-11-01T06:35:52.309Z,100.00
2022-11-01T06:36:56.133Z,100.00
2022-11-01T06:38:02.737Z,100.00
2022-11-01T06:39:06.562Z,100.00
2022-11-01T06:40:13.398Z,100.00
2022-11-01T06:41:17.450Z,100.00
2022-11-01T06:42:20.395Z,100.00
2022-11-01T06:43:24.532Z,100.00
2022-11-01T06:44:27.271Z,100.00
2022-11-01T06:45:31.398Z,100.00
2022-11-01T06:46:34.495Z,100.00
2022-11-01T06:48:49.372Z,100.00
2022-11-01T06:49:52.328Z,100.00
2022-11-01T06:50:57.148Z,100.00
2022-11-01T06:52:00.001Z,100.00
2022-11-01T06:53:04.394Z,100.00
2022-11-01T06:54:07.261Z,100.00
2022-11-01T06:55:12.642Z,100.00
2022-11-01T06:56:15.661Z,100.00
2022-11-01T06:57:19.471Z,100.00
2022-11-01T06:58:22.281Z,100.00
2022-11-01T06:59:26.042Z,100.00
2022-11-01T07:00:30.462Z,100.00
2022-11-01T07:01:34.495Z,100.00
2022-11-01T07:02:37.532Z,100.00
2022-11-01T07:03:41.481Z,100.00
2022-11-01T07:04:44.358Z,100.00
2022-11-01T07:05:49.719Z,100.00
2022-11-01T07:06:52.502Z,100.00
2022-11-01T07:07:56.631Z,100.00
2022-11-01T07:09:01.342Z,100.00
2022-11-01T07:10:04.571Z,100.00
2022-11-01T07:11:10.027Z,100.00
2022-11-01T07:12:12.875Z,100.00
2022-11-01T07:13:16.679Z,99.65
2022-11-01T07:14:19.453Z,99.63
2022-11-01T07:15:23.352Z,99.69
2022-11-01T07:16:26.341Z,99.54
2022-11-01T07:17:30.201Z,99.48
2022-11-01T07:18:33.368Z,99.88
2022-11-01T07:19:37.134Z,99.75
2022-11-01T07:20:43.332Z,100.00
2022-11-01T07:21:47.192Z,100.00
2022-11-01T07:22:58.576Z,99.81
2022-11-01T07:24:02.441Z,99.55
2022-11-01T07:25:06.211Z,99.97
2022-11-01T07:26:11.481Z,99.88
2022-11-01T07:27:19.445Z,99.15
2022-11-01T07:28:25.213Z,99.00
2022-11-01T07:29:27.950Z,99.33
2022-11-01T07:30:32.350Z,100.00
2022-11-01T07:31:35.492Z,99.67
2022-11-01T07:32:40.027Z,99.58
2022-11-01T07:33:43.950Z,99.51
2022-11-01T07:34:46.791Z,99.82
2022-11-01T07:35:50.690Z,99.88
2022-11-01T07:36:53.427Z,99.67
2022-11-01T07:37:59.523Z,99.58
2022-11-01T07:39:02.702Z,100.00
2022-11-01T07:40:07.373Z,100.00
2022-11-01T07:41:12.656Z,99.25
2022-11-01T07:42:15.341Z,99.45
2022-11-01T07:43:19.346Z,99.60
2022-11-01T07:44:22.128Z,99.73
2022-11-01T07:45:26.535Z,99.71
2022-11-01T07:46:30.829Z,98.91
2022-11-01T07:47:33.673Z,99.82
2022-11-01T07:48:37.471Z,99.64
2022-11-01T07:49:40.221Z,98.96
2022-11-01T07:50:44.978Z,99.93
2022-11-01T07:51:48.812Z,99.39
2022-11-01T07:53:00.616Z,99.56
2022-11-01T07:54:05.064Z,99.48
2022-11-01T07:55:09.288Z,99.38
2022-11-01T07:56:15.060Z,99.96
2022-11-01T07:57:19.056Z,99.58
2022-11-01T07:58:22.962Z,99.88
2022-11-01T07:59:26.749Z,100.00
2022-11-01T08:00:30.959Z,100.00
2022-11-01T08:01:34.231Z,100.00
2022-11-01T08:02:38.383Z,100.00
2022-11-01T08:03:41.292Z,100.00
2022-11-01T08:04:45.213Z,100.00
2022-11-01T08:05:49.111Z,99.65
2022-11-01T08:06:53.076Z,100.00
2022-11-01T08:07:56.092Z,100.00
2022-11-01T08:09:00.100Z,99.73
2022-11-01T08:10:03.092Z,100.00
2022-11-01T08:11:07.168Z,99.90
2022-11-01T08:12:11.432Z,99.24
2022-11-01T08:13:19.891Z,99.95
2022-11-01T08:14:22.683Z,99.67
2022-11-01T08:15:27.032Z,99.28
2022-11-01T08:16:31.126Z,99.39
2022-11-01T08:17:35.672Z,99.22
2022-11-01T08:18:38.389Z,100.00
2022-11-01T08:19:42.293Z,100.00
2022-11-01T08:20:46.373Z,100.00
2022-11-01T08:21:51.268Z,100.00
2022-11-01T08:22:55.448Z,100.00
2022-11-01T08:23:59.343Z,100.00
2022-11-01T08:25:02.191Z,100.00
2022-11-01T08:26:06.951Z,100.00
2022-11-01T08:27:11.192Z,100.00
2022-11-01T08:28:16.380Z,100.00
2022-11-01T08:29:20.469Z,100.00
2022-11-01T08:30:23.286Z,100.00
2022-11-01T08:31:27.155Z,100.00
2022-11-01T08:32:29.903Z,99.62
2022-11-01T08:33:33.733Z,99.16
2022-11-01T08:34:37.571Z,98.54
2022-11-01T08:35:41.847Z,97.97
2022-11-01T08:36:47.401Z,98.26
2022-11-01T08:37:51.881Z,98.33
2022-11-01T08:38:56.019Z,97.45
2022-11-01T08:40:00.638Z,97.36
2022-11-01T08:41:06.043Z,97.60
2022-11-01T08:42:10.625Z,97.57
2022-11-01T08:43:14.552Z,97.98
2022-11-01T08:44:19.598Z,97.63
2022-11-01T08:45:22.403Z,97.69
2022-11-01T08:46:26.469Z,98.00
2022-11-01T08:47:32.437Z,98.24
2022-11-01T08:48:36.968Z,97.63
2022-11-01T08:49:40.346Z,97.73
2022-11-01T08:50:44.399Z,98.12
2022-11-01T08:51:47.604Z,97.32
2022-11-01T08:52:52.178Z,96.81
2022-11-01T08:53:58.144Z,97.10
2022-11-01T08:55:01.894Z,97.04
2022-11-01T08:56:06.244Z,97.00
2022-11-01T08:57:10.419Z,97.40
2022-11-01T08:58:14.222Z,97.16
2022-11-01T08:59:17.002Z,96.82
2022-11-01T09:00:21.618Z,96.74
2022-11-01T09:01:27.333Z,97.07
2022-11-01T09:02:31.312Z,97.08
2022-11-01T09:03:34.102Z,96.38
2022-11-01T09:04:37.962Z,95.97
2022-11-01T09:05:40.890Z,95.68
2022-11-01T09:06:44.670Z,95.35
2022-11-01T09:07:47.566Z,95.58
2022-11-01T09:08:53.642Z,95.04
2022-11-01T09:09:57.440Z,95.10
2022-11-01T09:11:04.283Z,94.57
2022-11-01T09:12:13.753Z,93.90
2022-11-01T09:13:20.761Z,94.06
2022-11-01T09:14:25.162Z,94.08
2022-11-01T09:15:29.023Z,94.49
2022-11-01T09:16:33.161Z,94.26
2022-11-01T09:17:35.981Z,93.79
2022-11-01T09:18:48.603Z,93.92
2022-11-01T09:19:51.392Z,93.66
2022-11-01T09:20:56.202Z,93.15
2022-11-01T09:22:00.144Z,91.79
2022-11-01T09:23:04.378Z,92.27
2022-11-01T09:24:10.439Z,91.40
2022-11-01T09:25:13.362Z,90.76
2022-11-01T09:26:17.292Z,91.15
2022-11-01T09:27:20.279Z,90.64
2022-11-01T09:28:28.870Z,90.73
2022-11-01T09:30:49.809Z,88.80
2022-11-01T09:31:58.929Z,87.46
2022-11-01T09:33:05.806Z,87.14
2022-11-01T09:34:12.242Z,86.39
2022-11-01T09:35:17.819Z,85.45
2022-11-01T09:36:21.495Z,85.88
2022-11-01T09:37:25.412Z,85.76
2022-11-01T09:38:28.261Z,83.15
2022-11-01T09:39:32.363Z,83.54
2022-11-01T09:40:44.219Z,83.85
2022-11-01T09:41:51.120Z,82.02
2022-11-01T09:42:56.744Z,82.62
2022-11-01T09:44:07.789Z,82.81
2022-11-01T09:45:16.011Z,82.88
2022-11-01T09:47:31.909Z,82.65
2022-11-01T09:48:36.613Z,80.51
2022-11-01T09:49:40.511Z,80.85
2022-11-01T09:50:45.290Z,80.22
2022-11-01T09:51:49.542Z,80.15
2022-11-01T09:52:53.629Z,80.80
2022-11-01T09:53:59.488Z,80.78
2022-11-01T09:55:02.392Z,79.08
2022-11-01T09:56:10.539Z,80.18
2022-11-01T09:57:18.890Z,80.15
2022-11-01T09:58:30.604Z,80.47
2022-11-01T09:59:38.514Z,80.99
2022-11-01T10:00:48.063Z,80.71
2022-11-01T10:02:07.305Z,81.11
2022-11-01T10:03:35.812Z,80.95
2022-11-01T10:04:59.022Z,81.38
2022-11-01T10:06:05.860Z,81.43
2022-11-01T10:07:14.002Z,81.76
2022-11-01T10:08:25.309Z,80.95
2022-11-01T10:09:34.782Z,79.89
2022-11-01T10:10:41.391Z,80.00
2022-11-01T10:12:08.552Z,78.28
2022-11-01T10:13:27.803Z,79.66
2022-11-01T10:14:54.855Z,80.00
2022-11-01T10:16:04.349Z,79.66
2022-11-01T10:17:12.843Z,80.23
2022-11-01T10:18:27.521Z,80.04
2022-11-01T10:19:33.541Z,79.50
2022-11-01T10:20:39.550Z,78.15
2022-11-01T10:21:46.555Z,78.58
2022-11-01T10:22:50.242Z,78.84
2022-11-01T10:23:55.131Z,79.16
2022-11-01T10:24:59.444Z,77.72
2022-11-01T10:26:04.345Z,77.79
2022-11-01T10:27:14.701Z,77.88
2022-11-01T10:28:22.853Z,77.71
2022-11-01T10:29:32.091Z,78.15
2022-11-01T10:30:38.103Z,78.41
2022-11-01T10:31:46.991Z,78.09
2022-11-01T10:32:52.835Z,78.07
2022-11-01T10:34:01.520Z,78.20
2022-11-01T10:35:06.838Z,78.18
2022-11-01T10:36:15.219Z,77.89
2022-11-01T10:37:27.392Z,77.22
2022-11-01T10:40:09.118Z,77.90
2022-11-01T10:41:18.202Z,78.03
2022-11-01T10:42:21.913Z,76.80
2022-11-01T10:43:26.109Z,77.58
2022-11-01T10:44:32.391Z,77.55
2022-11-01T10:45:35.101Z,77.55
2022-11-01T10:46:41.251Z,77.70
2022-11-01T10:47:46.962Z,77.29
2022-11-01T10:48:51.409Z,76.93
2022-11-01T10:50:07.056Z,77.40
2022-11-01T10:51:12.560Z,77.04
2022-11-01T10:52:18.141Z,76.65
2022-11-01T10:53:22.748Z,76.72
2022-11-01T10:54:29.538Z,76.59
2022-11-01T10:55:38.328Z,77.09
2022-11-01T10:56:44.998Z,76.66
2022-11-01T10:57:50.719Z,76.61
2022-11-01T10:59:01.921Z,75.79
2022-11-01T11:00:07.773Z,76.36
2022-11-01T11:01:13.906Z,75.81
2022-11-01T11:02:22.939Z,75.96
2022-11-01T11:03:31.907Z,75.27
2022-11-01T11:04:35.152Z,76.02
2022-11-01T11:05:39.267Z,76.22
2022-11-01T11:06:42.831Z,76.13
2022-11-01T11:07:46.667Z,76.50
2022-11-01T11:08:52.808Z,76.27
2022-11-01T11:09:57.183Z,75.37
2022-11-01T11:11:06.079Z,75.04
2022-11-01T11:12:13.512Z,75.30
2022-11-01T11:13:19.571Z,75.75
2022-11-01T11:14:24.255Z,75.09
2022-11-01T11:15:39.982Z,75.08
2022-11-01T11:16:47.233Z,75.15
2022-11-01T11:17:53.900Z,75.35
2022-11-01T11:19:19.865Z,74.96
2022-11-01T11:20:27.002Z,75.08
2022-11-01T11:21:34.482Z,73.92
2022-11-01T11:22:40.080Z,74.46
2022-11-01T11:23:44.700Z,74.57
2022-11-01T11:24:49.471Z,74.70
2022-11-01T11:25:52.287Z,74.47
2022-11-01T11:26:56.970Z,73.87
2022-11-01T11:28:00.671Z,74.11
2022-11-01T11:29:04.916Z,73.63
2022-11-01T11:30:11.521Z,73.65
2022-11-01T11:31:15.873Z,73.90
2022-11-01T11:32:22.018Z,73.42
2022-11-01T11:33:24.929Z,72.84
2022-11-01T11:34:32.001Z,72.89
2022-11-01T11:35:37.952Z,73.05
2022-11-01T11:36:47.823Z,72.36
2022-11-01T11:37:53.799Z,73.16
2022-11-01T11:38:58.282Z,73.10
2022-11-01T11:40:19.905Z,73.02
2022-11-01T11:41:28.888Z,73.66
2022-11-01T11:42:35.503Z,73.24
2022-11-01T11:43:42.880Z,72.97
2022-11-01T11:44:51.880Z,73.01
2022-11-01T11:46:09.438Z,70.39
2022-11-01T11:47:20.699Z,71.66
2022-11-01T11:48:26.739Z,71.47
2022-11-01T11:49:32.602Z,71.08
2022-11-01T11:50:38.088Z,72.23
2022-11-01T11:51:42.412Z,71.34
2022-11-01T11:52:47.329Z,72.07
2022-11-01T11:54:13.711Z,71.05
2022-11-01T11:55:28.678Z,70.89
2022-11-01T11:56:32.805Z,71.33
2022-11-01T11:57:35.784Z,70.53
2022-11-01T11:58:43.512Z,71.09
2022-11-01T11:59:52.043Z,70.64
2022-11-01T12:01:01.169Z,71.05
2022-11-01T12:02:06.893Z,70.77
2022-11-01T12:03:17.454Z,70.13
2022-11-01T12:04:22.059Z,70.13
2022-11-01T12:05:29.051Z,69.37
2022-11-01T12:06:33.685Z,70.66
2022-11-01T12:07:38.046Z,69.65
2022-11-01T12:08:47.083Z,70.16
2022-11-01T12:09:49.933Z,70.86
2022-11-01T12:10:59.807Z,70.50
2022-11-01T12:12:07.654Z,71.02
2022-11-01T12:13:27.221Z,70.77
2022-11-01T12:14:31.299Z,70.94
2022-11-01T12:15:40.077Z,70.88
2022-11-01T12:16:45.226Z,70.41
2022-11-01T12:17:49.112Z,70.39
2022-11-01T12:18:57.022Z,70.43
2022-11-01T12:20:01.625Z,69.84
2022-11-01T12:21:07.059Z,69.85
2022-11-01T12:22:10.291Z,69.85
2022-11-01T12:23:17.991Z,70.07
2022-11-01T12:24:23.180Z,69.89
2022-11-01T12:25:26.978Z,69.91
2022-11-01T12:26:32.162Z,69.34
2022-11-01T12:27:37.139Z,69.54
2022-11-01T12:28:43.171Z,69.20
2022-11-01T12:29:50.969Z,69.86
2022-11-01T12:30:59.779Z,70.13
2022-11-01T12:32:06.746Z,70.10
2022-11-01T12:34:28.582Z,70.33
2022-11-01T12:35:38.005Z,70.20
2022-11-01T12:36:46.426Z,70.23
2022-11-01T12:37:57.448Z,69.69
2022-11-01T12:39:05.521Z,70.26
2022-11-01T12:40:17.352Z,69.44
2022-11-01T12:41:28.268Z,69.82
2022-11-01T12:42:37.334Z,70.26
2022-11-01T12:43:49.590Z,70.25
2022-11-01T12:44:56.089Z,69.45
2022-11-01T12:46:02.669Z,69.54
2022-11-01T12:47:12.432Z,69.89
2022-11-01T12:48:20.744Z,69.95
2022-11-01T12:49:31.621Z,69.53
2022-11-01T12:50:42.610Z,69.78
2022-11-01T12:51:50.890Z,69.66
2022-11-01T12:52:58.433Z,69.43
2022-11-01T12:54:06.261Z,68.94
2022-11-01T12:55:20.730Z,68.47
2022-11-01T12:56:24.973Z,69.54
2022-11-01T12:57:28.479Z,69.23
2022-11-01T12:58:36.094Z,69.55
2022-11-01T12:59:39.513Z,69.33
2022-11-01T13:00:57.863Z,69.77
2022-11-01T13:02:10.223Z,69.70
2022-11-01T13:03:24.121Z,69.25
2022-11-01T13:04:31.914Z,70.14
2022-11-01T13:05:40.681Z,70.04
2022-11-01T13:06:59.482Z,70.54
2022-11-01T13:08:10.259Z,70.63
2022-11-01T13:09:18.030Z,70.77
2022-11-01T13:10:28.090Z,70.32
2022-11-01T13:11:39.650Z,70.49
2022-11-01T13:12:51.030Z,70.92
2022-11-01T13:14:02.060Z,70.73
2022-11-01T13:15:13.208Z,70.67
2022-11-01T13:16:20.142Z,70.94
2022-11-01T13:17:28.017Z,71.07
2022-11-01T13:18:41.064Z,70.93
2022-11-01T13:19:50.403Z,71.28
2022-11-01T13:20:58.498Z,71.58
2022-11-01T13:22:07.551Z,70.88
2022-11-01T13:23:16.807Z,70.91
2022-11-01T13:24:26.702Z,70.74
2022-11-01T13:25:37.176Z,71.13
2022-11-01T13:26:45.110Z,71.30
2022-11-01T13:27:51.190Z,70.60
2022-11-01T13:29:08.012Z,70.50
2022-11-01T13:30:13.928Z,70.77
2022-11-01T13:31:28.021Z,70.59
2022-11-01T13:32:36.710Z,70.36
2022-11-01T13:33:44.701Z,69.94
2022-11-01T13:34:58.459Z,69.25
2022-11-01T13:36:05.481Z,69.67
2022-11-01T13:37:18.570Z,69.36
2022-11-01T13:38:27.972Z,69.37
2022-11-01T13:39:39.272Z,69.57
2022-11-01T13:40:45.512Z,68.96
2022-11-01T13:41:53.651Z,68.81
2022-11-01T13:43:02.523Z,68.89
2022-11-01T13:44:10.938Z,69.24
2022-11-01T13:45:44.978Z,69.08
2022-11-01T13:47:08.363Z,68.45
2022-11-01T13:48:17.870Z,68.95
2022-11-01T13:49:45.101Z,68.67
2022-11-01T13:51:10.452Z,68.74
2022-11-01T13:52:16.808Z,68.77
2022-11-01T13:53:23.741Z,69.08
2022-11-01T13:54:29.020Z,68.99
2022-11-01T13:55:38.240Z,69.03
2022-11-01T13:56:44.990Z,69.37
2022-11-01T13:57:48.984Z,69.64
2022-11-01T13:58:53.212Z,69.40
2022-11-01T13:59:57.707Z,69.81
2022-11-01T14:01:29.130Z,69.04
2022-11-01T14:02:57.750Z,69.63
2022-11-01T14:04:48.809Z,69.64
2022-11-01T14:06:31.325Z,69.66
2022-11-01T14:07:36.932Z,70.33
2022-11-01T14:08:41.328Z,70.35
2022-11-01T14:09:50.828Z,70.70
2022-11-01T14:10:53.801Z,70.34
2022-11-01T14:11:58.858Z,70.71
2022-11-01T14:13:13.985Z,70.56
2022-11-01T14:14:52.462Z,71.08
2022-11-01T14:16:04.830Z,71.06
2022-11-01T14:18:01.154Z,71.38
2022-11-01T14:19:20.150Z,71.94
2022-11-01T14:20:45.520Z,72.10
2022-11-01T14:21:51.252Z,72.50
2022-11-01T14:22:57.198Z,72.36
2022-11-01T14:24:09.539Z,72.51
2022-11-01T14:25:35.512Z,73.12
2022-11-01T14:27:11.175Z,73.26
2022-11-01T14:28:22.102Z,73.38
2022-11-01T14:29:25.940Z,73.43
2022-11-01T14:30:35.170Z,73.86
2022-11-01T14:31:38.459Z,73.98
2022-11-01T14:32:44.018Z,74.37
2022-11-01T14:33:48.772Z,74.52
2022-11-01T14:35:01.712Z,75.07
2022-11-01T14:36:05.776Z,74.86
2022-11-01T14:37:19.453Z,75.01
2022-11-01T14:38:29.325Z,75.57
2022-11-01T14:39:40.374Z,75.62
2022-11-01T14:40:48.259Z,75.33